RYR9857 LOWW-EFHK
Flight info
| Callsign | RYR9857 |
|---|---|
| Flight time | 2h 14m |
| Altitude | 35000 |
| Route | LEDVA DCT KATQA DCT UPLAV DCT BAVOK DCT UVROB DCT ASBIM DCT BOKSU DCT INBOV DCT GUNTA DCT SOKVA DCT KEMET Q11 INTOR |
| Aircraft | A320/M-SDE3FGHIRWY/LB1 |
Departure
| Time | 2026-04-23 15:03 |
|---|---|
| Airport | Vienna International Airport (LOWW) |
Arrival
| Time | 2026-04-23 17:17 |
|---|---|
| Airport | Helsinki Vantaa Airport (EFHK) |
| Time | Latitude | Longitude | Altitude | Speed | Heading |
|---|---|---|---|---|---|
| 2026-04-23 14:51 | 48.11977 | 16.55834 | 614 ft | 0 kts | 296° |
| 2026-04-23 14:55 | 48.11976 | 16.55835 | 621 ft | 2 kts | 296° |
| 2026-04-23 14:55 | 48.11966 | 16.55869 | 625 ft | 4 kts | 291° |
| 2026-04-23 14:55 | 48.11957 | 16.55907 | 625 ft | 4 kts | 278° |
| 2026-04-23 14:56 | 48.11959 | 16.55943 | 625 ft | 4 kts | 231° |
| 2026-04-23 14:56 | 48.11965 | 16.55952 | 625 ft | 1 kts | 206° |
| 2026-04-23 14:58 | 48.11942 | 16.55935 | 618 ft | 7 kts | 206° |
| 2026-04-23 14:58 | 48.11900 | 16.55905 | 609 ft | 7 kts | 206° |
| 2026-04-23 14:58 | 48.11837 | 16.55858 | 616 ft | 13 kts | 206° |
| 2026-04-23 14:58 | 48.11742 | 16.55787 | 613 ft | 17 kts | 204° |
| 2026-04-23 14:59 | 48.11659 | 16.55892 | 621 ft | 20 kts | 117° |
| 2026-04-23 14:59 | 48.11592 | 16.56094 | 615 ft | 23 kts | 115° |
| 2026-04-23 14:59 | 48.11516 | 16.56329 | 613 ft | 26 kts | 116° |
| 2026-04-23 14:59 | 48.11435 | 16.56583 | 615 ft | 28 kts | 116° |
| 2026-04-23 15:00 | 48.11350 | 16.56845 | 619 ft | 28 kts | 116° |
| 2026-04-23 15:00 | 48.11265 | 16.57104 | 616 ft | 25 kts | 115° |
| 2026-04-23 15:00 | 48.11184 | 16.57231 | 609 ft | 15 kts | 193° |
| 2026-04-23 15:00 | 48.11082 | 16.57167 | 609 ft | 15 kts | 207° |
| 2026-04-23 15:01 | 48.11062 | 16.57080 | 613 ft | 1 kts | 296° |
| 2026-04-23 15:01 | 48.11063 | 16.57079 | 613 ft | 0 kts | 296° |
| 2026-04-23 15:02 | 48.11064 | 16.57075 | 612 ft | 3 kts | 296° |
| 2026-04-23 15:02 | 48.11255 | 16.56485 | 609 ft | 96 kts | 296° |
| 2026-04-23 15:02 | 48.11639 | 16.55311 | 619 ft | 152 kts | 296° |
| 2026-04-23 15:02 | 48.12145 | 16.53745 | 964 ft | 166 kts | 295° |
| 2026-04-23 15:03 | 48.12404 | 16.52120 | 1707 ft | 163 kts | 265° |
| 2026-04-23 15:03 | 48.12206 | 16.50423 | 2314 ft | 168 kts | 258° |
| 2026-04-23 15:03 | 48.11951 | 16.48674 | 2780 ft | 179 kts | 258° |
| 2026-04-23 15:03 | 48.11788 | 16.46756 | 3170 ft | 194 kts | 273° |
| 2026-04-23 15:04 | 48.11918 | 16.44671 | 3563 ft | 209 kts | 277° |
| 2026-04-23 15:04 | 48.12121 | 16.42426 | 3953 ft | 226 kts | 281° |
| 2026-04-23 15:04 | 48.12788 | 16.40226 | 4366 ft | 241 kts | 311° |
| 2026-04-23 15:04 | 48.14193 | 16.38805 | 4926 ft | 254 kts | 344° |
| 2026-04-23 15:05 | 48.15975 | 16.38808 | 5525 ft | 266 kts | 19° |
| 2026-04-23 15:05 | 48.17697 | 16.39923 | 6239 ft | 273 kts | 25° |
| 2026-04-23 15:05 | 48.19429 | 16.41143 | 7021 ft | 277 kts | 25° |
| 2026-04-23 15:05 | 48.21187 | 16.42390 | 7821 ft | 281 kts | 25° |
| 2026-04-23 15:06 | 48.22962 | 16.43647 | 8607 ft | 284 kts | 25° |
| 2026-04-23 15:06 | 48.24761 | 16.44917 | 9381 ft | 287 kts | 25° |
| 2026-04-23 15:06 | 48.26579 | 16.46198 | 10116 ft | 290 kts | 25° |
| 2026-04-23 15:06 | 48.27808 | 16.47061 | 10455 ft | 300 kts | 25° |
| 2026-04-23 15:07 | 48.29749 | 16.48421 | 10824 ft | 317 kts | 25° |
| 2026-04-23 15:07 | 48.31799 | 16.49860 | 11173 ft | 333 kts | 25° |
| 2026-04-23 15:07 | 48.33939 | 16.51363 | 11617 ft | 345 kts | 25° |
| 2026-04-23 15:07 | 48.36126 | 16.52901 | 12274 ft | 349 kts | 25° |
| 2026-04-23 15:08 | 48.38338 | 16.54456 | 12951 ft | 352 kts | 25° |
| 2026-04-23 15:08 | 48.40567 | 16.56022 | 13594 ft | 356 kts | 25° |
| 2026-04-23 15:08 | 48.42819 | 16.57604 | 14220 ft | 359 kts | 25° |
| 2026-04-23 15:09 | 48.47386 | 16.60820 | 15438 ft | 365 kts | 25° |
| 2026-04-23 15:09 | 48.49700 | 16.62454 | 16019 ft | 369 kts | 25° |
| 2026-04-23 15:09 | 48.52035 | 16.64104 | 16584 ft | 372 kts | 25° |
| 2026-04-23 15:09 | 48.54386 | 16.65766 | 17153 ft | 375 kts | 25° |
| 2026-04-23 15:10 | 48.56760 | 16.67445 | 17697 ft | 378 kts | 25° |
| 2026-04-23 15:10 | 48.59152 | 16.69137 | 18237 ft | 381 kts | 25° |
| 2026-04-23 15:10 | 48.61563 | 16.70847 | 18770 ft | 384 kts | 25° |
| 2026-04-23 15:10 | 48.63987 | 16.72573 | 19288 ft | 387 kts | 25° |
| 2026-04-23 15:11 | 48.66435 | 16.74319 | 19802 ft | 390 kts | 25° |
| 2026-04-23 15:11 | 48.68897 | 16.76075 | 20306 ft | 393 kts | 25° |
| 2026-04-23 15:11 | 48.71364 | 16.77905 | 20796 ft | 396 kts | 30° |
| 2026-04-23 15:11 | 48.73643 | 16.80258 | 21294 ft | 399 kts | 39° |
| 2026-04-23 15:12 | 48.75659 | 16.83169 | 21761 ft | 402 kts | 45° |
| 2026-04-23 15:12 | 48.77618 | 16.86213 | 22204 ft | 405 kts | 45° |
| 2026-04-23 15:12 | 48.79591 | 16.89280 | 22665 ft | 408 kts | 45° |
| 2026-04-23 15:12 | 48.81581 | 16.92365 | 23079 ft | 410 kts | 45° |
| 2026-04-23 15:13 | 48.83588 | 16.95465 | 23491 ft | 413 kts | 45° |
| 2026-04-23 15:13 | 48.85604 | 16.98584 | 23887 ft | 415 kts | 45° |
| 2026-04-23 15:13 | 48.87629 | 17.01731 | 24271 ft | 418 kts | 45° |
| 2026-04-23 15:13 | 48.89667 | 17.04906 | 24641 ft | 420 kts | 45° |
| 2026-04-23 15:14 | 48.91713 | 17.08093 | 25007 ft | 422 kts | 45° |
| 2026-04-23 15:14 | 48.93769 | 17.11298 | 25347 ft | 425 kts | 45° |
| 2026-04-23 15:14 | 48.95836 | 17.14526 | 25683 ft | 427 kts | 45° |
| 2026-04-23 15:14 | 48.97915 | 17.17781 | 26014 ft | 429 kts | 45° |
| 2026-04-23 15:15 | 49.00028 | 17.21091 | 26341 ft | 431 kts | 45° |
| 2026-04-23 15:15 | 49.02234 | 17.24192 | 26651 ft | 433 kts | 37° |
| 2026-04-23 15:15 | 49.04733 | 17.26763 | 26943 ft | 435 kts | 31° |
| 2026-04-23 15:15 | 49.07327 | 17.29185 | 27242 ft | 438 kts | 31° |
| 2026-04-23 15:16 | 49.09889 | 17.31590 | 27518 ft | 439 kts | 31° |
| 2026-04-23 15:16 | 49.12529 | 17.34081 | 27802 ft | 442 kts | 31° |
| 2026-04-23 15:16 | 49.15144 | 17.36559 | 28080 ft | 443 kts | 31° |
| 2026-04-23 15:16 | 49.17767 | 17.39046 | 28347 ft | 445 kts | 31° |
| 2026-04-23 15:17 | 49.20410 | 17.41550 | 28607 ft | 447 kts | 31° |
| 2026-04-23 15:17 | 49.23056 | 17.44059 | 28865 ft | 449 kts | 31° |
| 2026-04-23 15:17 | 49.25710 | 17.46582 | 29122 ft | 450 kts | 32° |
| 2026-04-23 15:17 | 49.28371 | 17.49115 | 29366 ft | 451 kts | 32° |
| 2026-04-23 15:18 | 49.31042 | 17.51656 | 29593 ft | 453 kts | 31° |
| 2026-04-23 15:18 | 49.33725 | 17.54207 | 29812 ft | 454 kts | 32° |
| 2026-04-23 15:18 | 49.36408 | 17.56780 | 30035 ft | 456 kts | 32° |
| 2026-04-23 15:18 | 49.39099 | 17.59380 | 30219 ft | 458 kts | 32° |
| 2026-04-23 15:19 | 49.41792 | 17.61999 | 30416 ft | 459 kts | 32° |
| 2026-04-23 15:19 | 49.44493 | 17.64632 | 30596 ft | 460 kts | 32° |
| 2026-04-23 15:19 | 49.47200 | 17.67265 | 30794 ft | 462 kts | 32° |
| 2026-04-23 15:19 | 49.49917 | 17.69905 | 31012 ft | 462 kts | 32° |
| 2026-04-23 15:20 | 49.52628 | 17.72542 | 31267 ft | 461 kts | 32° |
| 2026-04-23 15:20 | 49.55337 | 17.75184 | 31518 ft | 460 kts | 32° |
| 2026-04-23 15:20 | 49.58035 | 17.77824 | 31772 ft | 459 kts | 32° |
| 2026-04-23 15:20 | 49.60733 | 17.80465 | 32014 ft | 459 kts | 32° |
| 2026-04-23 15:21 | 49.63427 | 17.83103 | 32249 ft | 459 kts | 32° |
| 2026-04-23 15:21 | 49.66120 | 17.85742 | 32492 ft | 458 kts | 32° |
| 2026-04-23 15:21 | 49.68808 | 17.88381 | 32700 ft | 458 kts | 32° |
| 2026-04-23 15:21 | 49.71498 | 17.91025 | 32924 ft | 458 kts | 32° |
| 2026-04-23 15:22 | 49.74180 | 17.93668 | 33170 ft | 457 kts | 32° |
| 2026-04-23 15:22 | 49.76859 | 17.96311 | 33378 ft | 457 kts | 32° |
| 2026-04-23 15:22 | 49.79538 | 17.98952 | 33600 ft | 456 kts | 32° |
| 2026-04-23 15:22 | 49.82214 | 18.01585 | 33814 ft | 456 kts | 32° |
| 2026-04-23 15:23 | 49.84889 | 18.04224 | 34019 ft | 455 kts | 32° |
| 2026-04-23 15:23 | 49.87560 | 18.06867 | 34249 ft | 455 kts | 32° |
| 2026-04-23 15:23 | 49.90220 | 18.09503 | 34469 ft | 454 kts | 32° |
| 2026-04-23 15:23 | 49.92880 | 18.12147 | 34691 ft | 453 kts | 32° |
| 2026-04-23 15:24 | 49.95531 | 18.14789 | 34897 ft | 453 kts | 32° |
| 2026-04-23 15:24 | 50.00691 | 18.19933 | 36660 ft | 436 kts | 34° |
| 2026-04-23 15:24 | 50.03219 | 18.22479 | 36983 ft | 431 kts | 34° |
| 2026-04-23 15:25 | 50.05716 | 18.25041 | 37065 ft | 430 kts | 35° |
| 2026-04-23 15:25 | 50.10696 | 18.30233 | 37072 ft | 432 kts | 35° |
| 2026-04-23 15:26 | 50.15693 | 18.35444 | 37065 ft | 433 kts | 35° |
| 2026-04-23 15:26 | 50.20707 | 18.40656 | 37061 ft | 433 kts | 35° |
| 2026-04-23 15:27 | 50.25726 | 18.45877 | 37063 ft | 434 kts | 35° |
| 2026-04-23 15:27 | 50.30752 | 18.51117 | 37056 ft | 434 kts | 35° |
| 2026-04-23 15:28 | 50.35763 | 18.56367 | 37064 ft | 433 kts | 35° |
| 2026-04-23 15:28 | 50.40766 | 18.61628 | 37065 ft | 433 kts | 35° |
| 2026-04-23 15:29 | 50.45764 | 18.66888 | 37064 ft | 433 kts | 35° |
| 2026-04-23 15:29 | 50.50761 | 18.72155 | 37062 ft | 432 kts | 36° |
| 2026-04-23 15:30 | 50.55749 | 18.77427 | 37059 ft | 432 kts | 36° |
| 2026-04-23 15:30 | 50.60732 | 18.82706 | 37057 ft | 432 kts | 36° |
| 2026-04-23 15:31 | 50.65708 | 18.88004 | 37055 ft | 431 kts | 36° |
| 2026-04-23 15:31 | 50.70672 | 18.93301 | 37062 ft | 431 kts | 36° |
| 2026-04-23 15:32 | 50.75637 | 18.98603 | 37059 ft | 430 kts | 36° |
| 2026-04-23 15:32 | 50.80586 | 19.03895 | 37054 ft | 430 kts | 36° |
| 2026-04-23 15:33 | 50.85531 | 19.09212 | 37054 ft | 429 kts | 36° |
| 2026-04-23 15:33 | 50.90472 | 19.14530 | 37045 ft | 429 kts | 36° |
| 2026-04-23 15:34 | 50.95380 | 19.19838 | 36792 ft | 412 kts | 32° |
| 2026-04-23 15:34 | 50.97686 | 19.22344 | 37573 ft | 397 kts | 32° |
| 2026-04-23 15:34 | 50.99941 | 19.24795 | 37937 ft | 390 kts | 32° |
| 2026-04-23 15:34 | 51.02192 | 19.27237 | 37698 ft | 396 kts | 32° |
| 2026-04-23 15:35 | 51.04475 | 19.29714 | 37289 ft | 398 kts | 31° |
| 2026-04-23 15:35 | 51.06761 | 19.32191 | 37013 ft | 398 kts | 31° |
| 2026-04-23 15:35 | 51.09047 | 19.34677 | 37027 ft | 398 kts | 31° |
| 2026-04-23 15:36 | 51.13623 | 19.39663 | 37028 ft | 399 kts | 31° |
| 2026-04-23 15:36 | 51.18204 | 19.44670 | 37028 ft | 399 kts | 31° |
| 2026-04-23 15:37 | 51.22785 | 19.49678 | 37026 ft | 399 kts | 31° |
| 2026-04-23 15:37 | 51.26617 | 19.53897 | 37021 ft | 399 kts | 32° |
| 2026-04-23 15:38 | 51.31924 | 19.59752 | 37028 ft | 399 kts | 31° |
| 2026-04-23 15:38 | 51.35750 | 19.63968 | 37030 ft | 399 kts | 31° |
| 2026-04-23 15:39 | 51.38031 | 19.66408 | 37025 ft | 398 kts | 31° |
| 2026-04-23 15:39 | 51.42601 | 19.71440 | 37028 ft | 399 kts | 32° |
| 2026-04-23 15:40 | 51.47133 | 19.76554 | 37033 ft | 398 kts | 32° |
| 2026-04-23 15:40 | 51.51675 | 19.81653 | 37038 ft | 398 kts | 31° |
| 2026-04-23 15:41 | 51.56222 | 19.86723 | 37033 ft | 398 kts | 31° |
| 2026-04-23 15:41 | 51.60770 | 19.91794 | 37033 ft | 398 kts | 31° |
| 2026-04-23 15:42 | 51.65308 | 19.96878 | 37024 ft | 398 kts | 31° |
| 2026-04-23 15:42 | 51.69845 | 20.01984 | 37020 ft | 398 kts | 31° |
| 2026-04-23 15:43 | 51.74379 | 20.07094 | 37027 ft | 397 kts | 31° |
| 2026-04-23 15:43 | 51.78177 | 20.11375 | 37024 ft | 397 kts | 31° |
| 2026-04-23 15:44 | 51.82702 | 20.16512 | 37024 ft | 398 kts | 31° |
| 2026-04-23 15:44 | 51.87226 | 20.21666 | 37014 ft | 398 kts | 31° |
| 2026-04-23 15:45 | 51.91750 | 20.26811 | 37012 ft | 398 kts | 31° |
| 2026-04-23 15:45 | 51.96284 | 20.31965 | 37021 ft | 398 kts | 31° |
| 2026-04-23 15:46 | 52.00809 | 20.37130 | 37012 ft | 398 kts | 31° |
| 2026-04-23 15:46 | 52.05331 | 20.42312 | 37016 ft | 398 kts | 31° |
| 2026-04-23 15:47 | 52.09555 | 20.47178 | 37014 ft | 398 kts | 31° |
| 2026-04-23 15:47 | 52.14066 | 20.52378 | 37009 ft | 397 kts | 31° |
| 2026-04-23 15:48 | 52.18581 | 20.57594 | 37004 ft | 398 kts | 31° |
| 2026-04-23 15:48 | 52.23087 | 20.62814 | 37004 ft | 397 kts | 31° |
| 2026-04-23 15:49 | 52.27595 | 20.68036 | 37025 ft | 397 kts | 31° |
| 2026-04-23 15:49 | 52.32095 | 20.73267 | 37023 ft | 397 kts | 31° |
| 2026-04-23 15:50 | 52.36589 | 20.78522 | 37027 ft | 397 kts | 31° |
| 2026-04-23 15:50 | 52.41111 | 20.83820 | 37021 ft | 397 kts | 31° |
| 2026-04-23 15:51 | 52.45595 | 20.89094 | 37022 ft | 396 kts | 31° |
| 2026-04-23 15:51 | 52.50078 | 20.94360 | 37024 ft | 397 kts | 31° |
| 2026-04-23 15:52 | 52.54566 | 20.99638 | 37009 ft | 397 kts | 31° |
| 2026-04-23 15:52 | 52.59048 | 21.04940 | 37010 ft | 397 kts | 31° |
| 2026-04-23 15:53 | 52.63506 | 21.10288 | 37005 ft | 397 kts | 31° |
| 2026-04-23 15:53 | 52.67960 | 21.15661 | 37008 ft | 397 kts | 31° |
| 2026-04-23 15:54 | 52.72419 | 21.21041 | 36992 ft | 397 kts | 31° |
| 2026-04-23 15:54 | 52.76868 | 21.26419 | 36994 ft | 397 kts | 31° |
| 2026-04-23 15:55 | 52.81327 | 21.31804 | 36995 ft | 397 kts | 31° |
| 2026-04-23 15:55 | 52.85776 | 21.37203 | 36994 ft | 397 kts | 31° |
| 2026-04-23 15:56 | 52.90224 | 21.42618 | 36992 ft | 397 kts | 31° |
| 2026-04-23 15:56 | 52.94663 | 21.48042 | 36993 ft | 397 kts | 31° |
| 2026-04-23 15:57 | 52.99103 | 21.53476 | 36990 ft | 397 kts | 31° |
| 2026-04-23 15:57 | 53.03543 | 21.58930 | 36992 ft | 397 kts | 31° |
| 2026-04-23 15:58 | 53.07983 | 21.64381 | 36990 ft | 397 kts | 31° |
| 2026-04-23 15:58 | 53.12417 | 21.69843 | 36990 ft | 397 kts | 31° |
| 2026-04-23 15:59 | 53.16855 | 21.75309 | 36991 ft | 396 kts | 30° |
| 2026-04-23 15:59 | 53.21410 | 21.80446 | 36986 ft | 394 kts | 28° |
| 2026-04-23 16:00 | 53.26011 | 21.85430 | 36983 ft | 394 kts | 28° |
| 2026-04-23 16:00 | 53.30594 | 21.90482 | 36982 ft | 395 kts | 28° |
| 2026-04-23 16:01 | 53.35161 | 21.95597 | 36981 ft | 395 kts | 28° |
| 2026-04-23 16:01 | 53.39720 | 22.00731 | 36985 ft | 395 kts | 28° |
| 2026-04-23 16:02 | 53.44281 | 22.05880 | 36979 ft | 395 kts | 28° |
| 2026-04-23 16:02 | 53.48841 | 22.11032 | 36958 ft | 395 kts | 28° |
| 2026-04-23 16:03 | 53.53526 | 22.15674 | 36960 ft | 386 kts | 15° |
| 2026-04-23 16:03 | 53.58651 | 22.18387 | 36955 ft | 387 kts | 14° |
| 2026-04-23 16:04 | 53.63791 | 22.21085 | 36952 ft | 387 kts | 14° |
| 2026-04-23 16:04 | 53.68933 | 22.23788 | 36956 ft | 387 kts | 14° |
| 2026-04-23 16:05 | 53.73242 | 22.26063 | 36963 ft | 388 kts | 14° |
| 2026-04-23 16:05 | 53.79229 | 22.29233 | 36969 ft | 388 kts | 14° |
| 2026-04-23 16:06 | 53.84385 | 22.31978 | 36967 ft | 388 kts | 14° |
| 2026-04-23 16:06 | 53.89540 | 22.34724 | 36966 ft | 389 kts | 14° |
| 2026-04-23 16:07 | 53.94699 | 22.37473 | 36971 ft | 389 kts | 14° |
| 2026-04-23 16:07 | 53.99868 | 22.40239 | 36965 ft | 389 kts | 15° |
| 2026-04-23 16:08 | 54.05036 | 22.43013 | 36968 ft | 390 kts | 14° |
| 2026-04-23 16:08 | 54.10205 | 22.45785 | 36966 ft | 390 kts | 15° |
| 2026-04-23 16:09 | 54.15385 | 22.48580 | 36961 ft | 390 kts | 15° |
| 2026-04-23 16:09 | 54.20565 | 22.51387 | 36963 ft | 391 kts | 15° |
| 2026-04-23 16:10 | 54.25748 | 22.54201 | 36964 ft | 391 kts | 15° |
| 2026-04-23 16:10 | 54.30881 | 22.56990 | 36958 ft | 391 kts | 15° |
| 2026-04-23 16:11 | 54.36067 | 22.59812 | 36955 ft | 391 kts | 15° |
| 2026-04-23 16:11 | 54.41254 | 22.62643 | 36950 ft | 391 kts | 15° |
| 2026-04-23 16:12 | 54.46444 | 22.65486 | 36949 ft | 391 kts | 15° |
| 2026-04-23 16:12 | 54.51631 | 22.68340 | 36948 ft | 392 kts | 15° |
| 2026-04-23 16:13 | 54.56820 | 22.71207 | 36947 ft | 392 kts | 15° |
| 2026-04-23 16:13 | 54.64606 | 22.75500 | 36943 ft | 392 kts | 15° |
| 2026-04-23 16:14 | 54.69796 | 22.78370 | 36944 ft | 392 kts | 15° |
| 2026-04-23 16:14 | 54.74983 | 22.81266 | 36945 ft | 392 kts | 15° |
| 2026-04-23 16:15 | 54.80201 | 22.84182 | 36937 ft | 392 kts | 15° |
| 2026-04-23 16:15 | 54.85360 | 22.87054 | 36940 ft | 392 kts | 15° |
| 2026-04-23 16:16 | 54.90586 | 22.89978 | 36938 ft | 392 kts | 15° |
| 2026-04-23 16:16 | 54.95769 | 22.92891 | 36930 ft | 392 kts | 16° |
| 2026-04-23 16:17 | 55.00956 | 22.95820 | 36935 ft | 392 kts | 16° |
| 2026-04-23 16:17 | 55.06107 | 22.98734 | 36935 ft | 392 kts | 16° |
| 2026-04-23 16:18 | 55.11323 | 23.01683 | 36934 ft | 392 kts | 16° |
| 2026-04-23 16:18 | 55.16508 | 23.04631 | 36933 ft | 392 kts | 16° |
| 2026-04-23 16:19 | 55.21686 | 23.07588 | 36931 ft | 392 kts | 16° |
| 2026-04-23 16:19 | 55.25994 | 23.10050 | 36932 ft | 392 kts | 16° |
| 2026-04-23 16:20 | 55.31171 | 23.13005 | 36933 ft | 391 kts | 16° |
| 2026-04-23 16:20 | 55.36348 | 23.15988 | 36930 ft | 392 kts | 16° |
| 2026-04-23 16:21 | 55.41528 | 23.18977 | 36930 ft | 392 kts | 16° |
| 2026-04-23 16:21 | 55.46703 | 23.21960 | 36932 ft | 392 kts | 16° |
| 2026-04-23 16:22 | 55.51883 | 23.24948 | 36931 ft | 391 kts | 16° |
| 2026-04-23 16:22 | 55.57056 | 23.27955 | 36933 ft | 392 kts | 16° |
| 2026-04-23 16:23 | 55.62232 | 23.30981 | 36934 ft | 391 kts | 16° |
| 2026-04-23 16:23 | 55.67405 | 23.34003 | 36934 ft | 392 kts | 16° |
| 2026-04-23 16:24 | 55.72579 | 23.37026 | 36936 ft | 392 kts | 16° |
| 2026-04-23 16:24 | 55.77755 | 23.40060 | 36934 ft | 392 kts | 16° |
| 2026-04-23 16:25 | 55.82926 | 23.43110 | 36935 ft | 392 kts | 16° |
| 2026-04-23 16:25 | 55.88097 | 23.46160 | 36935 ft | 392 kts | 16° |
| 2026-04-23 16:26 | 55.93270 | 23.49221 | 36936 ft | 392 kts | 16° |
| 2026-04-23 16:26 | 55.98455 | 23.52302 | 36937 ft | 392 kts | 16° |
| 2026-04-23 16:27 | 56.03629 | 23.55374 | 36936 ft | 392 kts | 16° |
| 2026-04-23 16:27 | 56.08794 | 23.58455 | 36936 ft | 392 kts | 17° |
| 2026-04-23 16:28 | 56.13969 | 23.61562 | 36936 ft | 392 kts | 17° |
| 2026-04-23 16:28 | 56.19135 | 23.64669 | 36938 ft | 392 kts | 17° |
| 2026-04-23 16:29 | 56.24306 | 23.67773 | 36940 ft | 392 kts | 17° |
| 2026-04-23 16:29 | 56.29477 | 23.70896 | 36941 ft | 392 kts | 17° |
| 2026-04-23 16:30 | 56.34645 | 23.74030 | 36943 ft | 392 kts | 17° |
| 2026-04-23 16:30 | 56.39903 | 23.76504 | 36938 ft | 391 kts | 10° |
| 2026-04-23 16:31 | 56.45246 | 23.78330 | 36940 ft | 391 kts | 10° |
| 2026-04-23 16:31 | 56.50588 | 23.80150 | 36944 ft | 391 kts | 10° |
| 2026-04-23 16:32 | 56.55929 | 23.81984 | 36945 ft | 391 kts | 10° |
| 2026-04-23 16:32 | 56.61271 | 23.83833 | 36948 ft | 391 kts | 10° |
| 2026-04-23 16:33 | 56.66613 | 23.85690 | 36953 ft | 391 kts | 10° |
| 2026-04-23 16:33 | 56.71956 | 23.87548 | 36954 ft | 391 kts | 10° |
| 2026-04-23 16:34 | 56.77297 | 23.89406 | 36959 ft | 391 kts | 10° |
| 2026-04-23 16:34 | 56.82645 | 23.91273 | 36960 ft | 391 kts | 10° |
| 2026-04-23 16:35 | 56.88025 | 23.93151 | 36963 ft | 391 kts | 10° |
| 2026-04-23 16:35 | 56.93368 | 23.95015 | 36962 ft | 391 kts | 10° |
| 2026-04-23 16:36 | 56.98709 | 23.96902 | 36962 ft | 391 kts | 10° |
| 2026-04-23 16:36 | 57.04049 | 23.98795 | 36959 ft | 391 kts | 10° |
| 2026-04-23 16:37 | 57.09394 | 24.00692 | 36956 ft | 391 kts | 10° |
| 2026-04-23 16:37 | 57.14735 | 24.02588 | 36953 ft | 391 kts | 10° |
| 2026-04-23 16:38 | 57.20077 | 24.04492 | 36955 ft | 391 kts | 10° |
| 2026-04-23 16:38 | 57.25420 | 24.06400 | 36946 ft | 391 kts | 10° |
| 2026-04-23 16:39 | 57.30759 | 24.08317 | 36940 ft | 391 kts | 10° |
| 2026-04-23 16:39 | 57.36096 | 24.10238 | 36942 ft | 391 kts | 10° |
| 2026-04-23 16:40 | 57.41434 | 24.12157 | 36936 ft | 391 kts | 10° |
| 2026-04-23 16:40 | 57.46771 | 24.14079 | 36936 ft | 391 kts | 10° |
| 2026-04-23 16:41 | 57.52111 | 24.16016 | 36936 ft | 391 kts | 10° |
| 2026-04-23 16:41 | 57.57452 | 24.17952 | 36938 ft | 391 kts | 10° |
| 2026-04-23 16:42 | 57.62796 | 24.19908 | 36929 ft | 391 kts | 10° |
| 2026-04-23 16:42 | 57.68137 | 24.21874 | 36926 ft | 391 kts | 10° |
| 2026-04-23 16:43 | 57.73484 | 24.23848 | 36927 ft | 392 kts | 10° |
| 2026-04-23 16:43 | 57.78833 | 24.25813 | 36925 ft | 392 kts | 10° |
| 2026-04-23 16:44 | 57.84191 | 24.27775 | 36928 ft | 392 kts | 10° |
| 2026-04-23 16:44 | 57.89553 | 24.29764 | 36923 ft | 393 kts | 10° |
| 2026-04-23 16:45 | 57.94920 | 24.31687 | 36922 ft | 393 kts | 9° |
| 2026-04-23 16:45 | 58.00289 | 24.33494 | 36927 ft | 392 kts | 9° |
| 2026-04-23 16:46 | 58.05659 | 24.35308 | 36927 ft | 392 kts | 9° |
| 2026-04-23 16:46 | 58.11017 | 24.37168 | 36922 ft | 391 kts | 9° |
| 2026-04-23 16:47 | 58.16361 | 24.39024 | 36920 ft | 390 kts | 9° |
| 2026-04-23 16:47 | 58.21699 | 24.40874 | 36921 ft | 390 kts | 9° |
| 2026-04-23 16:48 | 58.27025 | 24.42707 | 36914 ft | 389 kts | 9° |
| 2026-04-23 16:48 | 58.32347 | 24.44551 | 36911 ft | 388 kts | 9° |
| 2026-04-23 16:49 | 58.37662 | 24.46414 | 36909 ft | 388 kts | 9° |
| 2026-04-23 16:49 | 58.42965 | 24.48283 | 36902 ft | 387 kts | 9° |
| 2026-04-23 16:50 | 58.48265 | 24.50159 | 36901 ft | 387 kts | 9° |
| 2026-04-23 16:50 | 58.53552 | 24.52036 | 36905 ft | 387 kts | 9° |
| 2026-04-23 16:51 | 58.58843 | 24.53898 | 36902 ft | 386 kts | 9° |
| 2026-04-23 16:51 | 58.64123 | 24.55772 | 36913 ft | 386 kts | 9° |
| 2026-04-23 16:52 | 58.69395 | 24.57664 | 36904 ft | 385 kts | 9° |
| 2026-04-23 16:52 | 58.74668 | 24.59554 | 36910 ft | 385 kts | 9° |
| 2026-04-23 16:53 | 58.79927 | 24.61438 | 36903 ft | 384 kts | 9° |
| 2026-04-23 16:53 | 58.85184 | 24.63324 | 36912 ft | 384 kts | 9° |
| 2026-04-23 16:54 | 58.90429 | 24.65222 | 36908 ft | 383 kts | 9° |
| 2026-04-23 16:54 | 58.95665 | 24.67121 | 36910 ft | 383 kts | 9° |
| 2026-04-23 16:55 | 59.00899 | 24.69015 | 36483 ft | 381 kts | 9° |
| 2026-04-23 16:55 | 59.03504 | 24.69962 | 36227 ft | 381 kts | 9° |
| 2026-04-23 16:55 | 59.06112 | 24.70908 | 35965 ft | 381 kts | 9° |
| 2026-04-23 16:56 | 59.08718 | 24.71853 | 35376 ft | 380 kts | 9° |
| 2026-04-23 16:56 | 59.11312 | 24.72797 | 34633 ft | 378 kts | 9° |
| 2026-04-23 16:56 | 59.13057 | 24.73435 | 34163 ft | 378 kts | 9° |
| 2026-04-23 16:56 | 59.16480 | 24.74690 | 33288 ft | 376 kts | 9° |
| 2026-04-23 16:57 | 59.19037 | 24.75630 | 32830 ft | 374 kts | 9° |
| 2026-04-23 16:57 | 59.20764 | 24.76266 | 32492 ft | 372 kts | 9° |
| 2026-04-23 16:57 | 59.23296 | 24.77203 | 32002 ft | 369 kts | 8° |
| 2026-04-23 16:57 | 59.25805 | 24.78135 | 31513 ft | 366 kts | 8° |
| 2026-04-23 16:58 | 59.28294 | 24.79062 | 31039 ft | 363 kts | 8° |
| 2026-04-23 16:58 | 59.30731 | 24.79969 | 30568 ft | 360 kts | 8° |
| 2026-04-23 16:58 | 59.33174 | 24.80877 | 30101 ft | 354 kts | 8° |
| 2026-04-23 16:58 | 59.35574 | 24.81768 | 29592 ft | 347 kts | 8° |
| 2026-04-23 16:59 | 59.37922 | 24.82644 | 29149 ft | 339 kts | 8° |
| 2026-04-23 16:59 | 59.40215 | 24.83504 | 28709 ft | 334 kts | 9° |
| 2026-04-23 16:59 | 59.42467 | 24.84874 | 28161 ft | 336 kts | 18° |
| 2026-04-23 16:59 | 59.44580 | 24.86629 | 27619 ft | 333 kts | 17° |
| 2026-04-23 17:00 | 59.46702 | 24.88399 | 27098 ft | 330 kts | 17° |
| 2026-04-23 17:00 | 59.48809 | 24.90158 | 26580 ft | 327 kts | 17° |
| 2026-04-23 17:00 | 59.50896 | 24.91900 | 26082 ft | 325 kts | 17° |
| 2026-04-23 17:00 | 59.52974 | 24.93632 | 25587 ft | 323 kts | 17° |
| 2026-04-23 17:01 | 59.55033 | 24.95346 | 25125 ft | 320 kts | 17° |
| 2026-04-23 17:01 | 59.57079 | 24.97052 | 24658 ft | 318 kts | 17° |
| 2026-04-23 17:01 | 59.59111 | 24.98751 | 24201 ft | 316 kts | 16° |
| 2026-04-23 17:01 | 59.61126 | 25.00438 | 23743 ft | 314 kts | 16° |
| 2026-04-23 17:02 | 59.63131 | 25.02117 | 23255 ft | 311 kts | 16° |
| 2026-04-23 17:02 | 59.65112 | 25.03778 | 22759 ft | 308 kts | 16° |
| 2026-04-23 17:02 | 59.67080 | 25.05432 | 22292 ft | 305 kts | 16° |
| 2026-04-23 17:02 | 59.69027 | 25.07066 | 21847 ft | 302 kts | 16° |
| 2026-04-23 17:03 | 59.70955 | 25.08687 | 21391 ft | 300 kts | 16° |
| 2026-04-23 17:03 | 59.72889 | 25.10315 | 20929 ft | 297 kts | 16° |
| 2026-04-23 17:03 | 59.74759 | 25.11893 | 20479 ft | 295 kts | 16° |
| 2026-04-23 17:03 | 59.76635 | 25.13478 | 20022 ft | 292 kts | 16° |
| 2026-04-23 17:04 | 59.78493 | 25.15051 | 19568 ft | 289 kts | 16° |
| 2026-04-23 17:04 | 59.80340 | 25.16611 | 19032 ft | 289 kts | 16° |
| 2026-04-23 17:04 | 59.82198 | 25.18174 | 18465 ft | 290 kts | 16° |
| 2026-04-23 17:04 | 59.84062 | 25.19747 | 17886 ft | 291 kts | 16° |
| 2026-04-23 17:05 | 59.85927 | 25.21333 | 17276 ft | 292 kts | 16° |
| 2026-04-23 17:05 | 59.87792 | 25.22922 | 16671 ft | 292 kts | 16° |
| 2026-04-23 17:05 | 59.89706 | 25.24178 | 16078 ft | 287 kts | 5° |
| 2026-04-23 17:05 | 59.91674 | 25.24224 | 15495 ft | 283 kts | 350° |
| 2026-04-23 17:06 | 59.93579 | 25.23183 | 14922 ft | 285 kts | 343° |
| 2026-04-23 17:06 | 59.95467 | 25.21975 | 14356 ft | 286 kts | 343° |
| 2026-04-23 17:06 | 59.97370 | 25.20763 | 13805 ft | 287 kts | 343° |
| 2026-04-23 17:06 | 59.99277 | 25.19548 | 13200 ft | 288 kts | 343° |
| 2026-04-23 17:07 | 60.01186 | 25.18330 | 12583 ft | 289 kts | 343° |
| 2026-04-23 17:07 | 60.03088 | 25.17113 | 11970 ft | 283 kts | 343° |
| 2026-04-23 17:07 | 60.04921 | 25.15939 | 11389 ft | 276 kts | 343° |
| 2026-04-23 17:07 | 60.06724 | 25.14787 | 10810 ft | 269 kts | 343° |
| 2026-04-23 17:08 | 60.08486 | 25.13662 | 10239 ft | 263 kts | 344° |
| 2026-04-23 17:08 | 60.10213 | 25.12560 | 9702 ft | 257 kts | 344° |
| 2026-04-23 17:08 | 60.11894 | 25.11482 | 9128 ft | 251 kts | 344° |
| 2026-04-23 17:08 | 60.13461 | 25.10047 | 8564 ft | 248 kts | 329° |
| 2026-04-23 17:09 | 60.14727 | 25.07665 | 8130 ft | 253 kts | 313° |
| 2026-04-23 17:09 | 60.15599 | 25.04574 | 7735 ft | 256 kts | 303° |
| 2026-04-23 17:09 | 60.16367 | 25.01376 | 7344 ft | 253 kts | 303° |
| 2026-04-23 17:09 | 60.17133 | 24.98203 | 6963 ft | 252 kts | 303° |
| 2026-04-23 17:10 | 60.17810 | 24.94933 | 6551 ft | 258 kts | 290° |
| 2026-04-23 17:10 | 60.17869 | 24.91252 | 6144 ft | 273 kts | 265° |
| 2026-04-23 17:10 | 60.17118 | 24.87694 | 5708 ft | 285 kts | 239° |
| 2026-04-23 17:10 | 60.15806 | 24.84682 | 5289 ft | 285 kts | 237° |
| 2026-04-23 17:11 | 60.14991 | 24.81266 | 4871 ft | 263 kts | 269° |
| 2026-04-23 17:11 | 60.15164 | 24.77811 | 4467 ft | 241 kts | 300° |
| 2026-04-23 17:11 | 60.16090 | 24.75187 | 4124 ft | 225 kts | 321° |
| 2026-04-23 17:11 | 60.17235 | 24.73104 | 3783 ft | 220 kts | 321° |
| 2026-04-23 17:12 | 60.18355 | 24.71054 | 3442 ft | 215 kts | 321° |
| 2026-04-23 17:12 | 60.19528 | 24.69308 | 3213 ft | 203 kts | 340° |
| 2026-04-23 17:12 | 60.20871 | 24.69022 | 3116 ft | 193 kts | 8° |
| 2026-04-23 17:12 | 60.22052 | 24.70195 | 2955 ft | 194 kts | 37° |
| 2026-04-23 17:13 | 60.22976 | 24.72180 | 2710 ft | 193 kts | 40° |
| 2026-04-23 17:13 | 60.23867 | 24.74144 | 2474 ft | 188 kts | 40° |
| 2026-04-23 17:13 | 60.24735 | 24.76042 | 2212 ft | 180 kts | 40° |
| 2026-04-23 17:13 | 60.25551 | 24.77829 | 1966 ft | 166 kts | 40° |
| 2026-04-23 17:14 | 60.26297 | 24.79463 | 1763 ft | 148 kts | 39° |
| 2026-04-23 17:14 | 60.26959 | 24.80909 | 1561 ft | 136 kts | 37° |
| 2026-04-23 17:14 | 60.27604 | 24.82311 | 1378 ft | 136 kts | 39° |
| 2026-04-23 17:14 | 60.28246 | 24.83710 | 1155 ft | 136 kts | 39° |
| 2026-04-23 17:15 | 60.28890 | 24.85116 | 923 ft | 137 kts | 42° |
| 2026-04-23 17:15 | 60.29535 | 24.86515 | 710 ft | 136 kts | 41° |
| 2026-04-23 17:15 | 60.30192 | 24.87929 | 515 ft | 140 kts | 41° |
| 2026-04-23 17:15 | 60.30845 | 24.89390 | 314 ft | 139 kts | 44° |
| 2026-04-23 17:16 | 60.31484 | 24.90808 | 157 ft | 132 kts | 44° |
| 2026-04-23 17:16 | 60.32042 | 24.92019 | 155 ft | 100 kts | 47° |
| 2026-04-23 17:16 | 60.32443 | 24.92896 | 173 ft | 74 kts | 48° |
| 2026-04-23 17:16 | 60.32743 | 24.93588 | 181 ft | 58 kts | 46° |
| 2026-04-23 17:17 | 60.32985 | 24.94100 | 187 ft | 33 kts | 48° |
| 2026-04-23 17:17 | 60.33052 | 24.94403 | 189 ft | 22 kts | 95° |
| 2026-04-23 17:17 | 60.33047 | 24.94588 | 184 ft | 16 kts | 92° |
| 2026-04-23 17:17 | 60.33074 | 24.94879 | 179 ft | 16 kts | 45° |
| 2026-04-23 17:18 | 60.33154 | 24.95275 | 178 ft | 16 kts | 45° |
| 2026-04-23 17:18 | 60.33209 | 24.95489 | 183 ft | 20 kts | 111° |
| 2026-04-23 17:18 | 60.33108 | 24.95702 | 180 ft | 21 kts | 136° |
| 2026-04-23 17:19 | 60.32997 | 24.95856 | 180 ft | 19 kts | 150° |
| 2026-04-23 17:19 | 60.32904 | 24.96006 | 175 ft | 16 kts | 98° |
| 2026-04-23 17:19 | 60.32896 | 24.96187 | 174 ft | 14 kts | 139° |
| 2026-04-23 17:19 | 60.32766 | 24.96345 | 172 ft | 30 kts | 150° |
| 2026-04-23 17:20 | 60.32582 | 24.96552 | 172 ft | 27 kts | 150° |
| 2026-04-23 17:20 | 60.32382 | 24.96769 | 169 ft | 0 kts | 153° |
| 2026-04-23 17:22 | 60.32380 | 24.96771 | 169 ft | 2 kts | 153° |
| 2026-04-23 17:23 | 60.32273 | 24.96882 | 165 ft | 12 kts | 153° |
| 2026-04-23 17:23 | 60.32188 | 24.96967 | 166 ft | 20 kts | 157° |
| 2026-04-23 17:23 | 60.31915 | 24.97244 | 163 ft | 24 kts | 154° |
| 2026-04-23 17:24 | 60.31758 | 24.97412 | 160 ft | 27 kts | 153° |
| 2026-04-23 17:24 | 60.31601 | 24.97577 | 157 ft | 19 kts | 153° |
| 2026-04-23 17:24 | 60.31445 | 24.97593 | 160 ft | 14 kts | 152° |
| 2026-04-23 17:25 | 60.31377 | 24.97538 | 163 ft | 5 kts | 242° |
| 2026-04-23 17:25 | 60.31372 | 24.97521 | 164 ft | 0 kts | 242° |
| 2026-04-23 17:26 | 60.31370 | 24.97513 | 164 ft | 0 kts | 242° |